createdAt,value
2024-05-09T00:01:21.148Z,101592.02
2024-05-09T00:03:52.690Z,101592.35
2024-05-09T00:06:25.650Z,101590.98
2024-05-09T00:08:56.954Z,101591.23
2024-05-09T00:11:28.344Z,101593.63
2024-05-09T00:13:59.982Z,101596.40
2024-05-09T00:16:31.351Z,101597.86
2024-05-09T00:19:03.002Z,101594.83
2024-05-09T00:21:34.332Z,101591.50
2024-05-09T00:24:06.046Z,101595.56
2024-05-09T00:26:37.390Z,101597.73
2024-05-09T00:29:08.844Z,101599.02
2024-05-09T00:31:40.324Z,101597.64
2024-05-09T00:34:11.751Z,101596.77
2024-05-09T00:36:43.150Z,101597.79
2024-05-09T00:39:14.847Z,101597.56
2024-05-09T00:41:46.205Z,101600.39
2024-05-09T00:44:17.930Z,101604.98
2024-05-09T00:46:54.403Z,101602.40
2024-05-09T00:49:27.981Z,101602.16
2024-05-09T00:51:59.873Z,101598.17
2024-05-09T00:54:31.335Z,101599.98
2024-05-09T00:57:02.858Z,101603.48
2024-05-09T00:59:34.630Z,101600.61
2024-05-09T01:02:06.797Z,101599.26
2024-05-09T01:04:38.509Z,101594.88
2024-05-09T01:07:11.563Z,101598.84
2024-05-09T01:09:43.124Z,101598.20
2024-05-09T01:12:14.571Z,101603.46
2024-05-09T01:14:46.283Z,101604.14
2024-05-09T01:17:17.878Z,101605.45
2024-05-09T01:19:49.399Z,101602.13
2024-05-09T01:22:23.854Z,101603.23
2024-05-09T01:24:55.392Z,101607.16
2024-05-09T01:27:26.697Z,101606.27
2024-05-09T01:29:58.131Z,101607.29
2024-05-09T01:32:29.492Z,101609.56
2024-05-09T01:35:01.141Z,101613.80
2024-05-09T01:37:32.573Z,101618.20
2024-05-09T01:40:07.334Z,101622.20
2024-05-09T01:42:40.623Z,101630.86
2024-05-09T01:45:12.228Z,101630.37
2024-05-09T01:47:43.671Z,101631.02
2024-05-09T01:52:47.632Z,101623.36
2024-05-09T01:55:19.490Z,101623.91
2024-05-09T01:57:50.669Z,101622.46
2024-05-09T02:00:33.771Z,101619.26
2024-05-09T02:03:14.977Z,101618.58
2024-05-09T02:05:49.890Z,101619.40
2024-05-09T02:08:22.429Z,101616.29
2024-05-09T02:10:54.179Z,101619.36
2024-05-09T02:13:25.490Z,101617.88
2024-05-09T02:15:57.753Z,101618.08
2024-05-09T02:18:29.143Z,101617.10
2024-05-09T02:21:00.734Z,101618.48
2024-05-09T02:23:32.333Z,101622.67
2024-05-09T02:26:03.846Z,101622.27
2024-05-09T02:28:35.055Z,101621.84
2024-05-09T02:31:06.617Z,101617.98
2024-05-09T02:33:38.387Z,101620.21
2024-05-09T02:36:10.334Z,101616.64
2024-05-09T02:38:41.859Z,101613.54
2024-05-09T02:41:13.376Z,101611.54
2024-05-09T02:43:44.730Z,101614.70
2024-05-09T02:46:16.153Z,101615.13
2024-05-09T02:48:47.461Z,101615.91
2024-05-09T02:51:19.041Z,101617.64
2024-05-09T02:53:50.279Z,101618.88
2024-05-09T02:56:21.881Z,101621.44
2024-05-09T02:58:53.270Z,101617.19
2024-05-09T03:01:24.926Z,101617.20
2024-05-09T03:03:56.596Z,101619.13
2024-05-09T03:06:28.204Z,101621.61
2024-05-09T03:08:59.447Z,101623.69
2024-05-09T03:11:30.974Z,101622.98
2024-05-09T03:14:02.555Z,101627.96
2024-05-09T03:16:39.941Z,101617.54
2024-05-09T03:19:11.371Z,101626.92
2024-05-09T03:21:42.959Z,101628.27
2024-05-09T03:24:14.238Z,101629.65
2024-05-09T03:26:45.650Z,101627.67
2024-05-09T03:29:17.085Z,101628.11
2024-05-09T03:31:48.940Z,101628.48
2024-05-09T03:34:20.321Z,101629.05
2024-05-09T03:36:51.587Z,101631.02
2024-05-09T03:39:22.832Z,101633.36
2024-05-09T03:41:54.322Z,101635.30
2024-05-09T03:44:25.737Z,101636.14
2024-05-09T03:46:57.550Z,101635.48
2024-05-09T03:49:28.916Z,101637.45
2024-05-09T03:52:05.002Z,101635.86
2024-05-09T03:54:37.183Z,101637.17
2024-05-09T03:57:08.832Z,101638.30
2024-05-09T03:59:40.112Z,101631.94
2024-05-09T04:02:11.927Z,101630.02
2024-05-09T04:04:45.048Z,101629.77
2024-05-09T04:07:16.795Z,101631.90
2024-05-09T04:09:48.136Z,101626.56
2024-05-09T04:12:19.739Z,101628.96
2024-05-09T04:14:50.952Z,101632.42
2024-05-09T04:17:22.460Z,101632.41
2024-05-09T04:19:53.892Z,101635.77
2024-05-09T04:22:25.287Z,101629.98
2024-05-09T04:24:56.720Z,101632.20
2024-05-09T04:27:30.114Z,101636.25
2024-05-09T04:30:01.393Z,101635.73
2024-05-09T04:32:33.032Z,101638.88
2024-05-09T04:35:04.596Z,101639.65
2024-05-09T04:37:36.139Z,101638.30
2024-05-09T04:40:17.176Z,101645.00
2024-05-09T04:42:55.116Z,101641.90
2024-05-09T04:45:26.376Z,101645.48
2024-05-09T04:47:58.284Z,101647.23
2024-05-09T04:50:36.293Z,101647.84
2024-05-09T04:53:11.487Z,101642.92
2024-05-09T04:55:43.267Z,101640.57
2024-05-09T04:58:15.083Z,101637.60
2024-05-09T05:00:46.565Z,101633.34
2024-05-09T05:03:18.454Z,101634.98
2024-05-09T05:05:50.906Z,101635.04
2024-05-09T05:08:22.331Z,101636.55
2024-05-09T05:10:53.868Z,101637.15
2024-05-09T05:13:25.611Z,101632.46
2024-05-09T05:15:58.082Z,101636.19
2024-05-09T05:18:30.147Z,101638.34
2024-05-09T05:21:01.667Z,101642.20
2024-05-09T05:23:33.092Z,101643.31
2024-05-09T05:26:04.510Z,101640.52
2024-05-09T05:28:36.171Z,101639.87
2024-05-09T05:31:07.553Z,101643.37
2024-05-09T05:33:39.141Z,101646.12
2024-05-09T05:36:12.052Z,101646.24
2024-05-09T05:38:43.696Z,101643.12
2024-05-09T05:41:15.185Z,101642.47
2024-05-09T05:43:46.711Z,101640.21
2024-05-09T05:46:18.037Z,101640.63
2024-05-09T05:48:49.622Z,101638.85
2024-05-09T05:51:21.164Z,101640.64
2024-05-09T05:53:52.722Z,101641.73
2024-05-09T05:56:24.321Z,101637.30
2024-05-09T05:58:55.954Z,101638.92
2024-05-09T06:01:27.300Z,101638.02
2024-05-09T06:03:59.045Z,101637.91
2024-05-09T06:06:30.339Z,101638.27
2024-05-09T06:09:01.805Z,101639.96
2024-05-09T06:11:33.258Z,101638.09
2024-05-09T06:14:05.334Z,101637.85
2024-05-09T06:16:36.620Z,101630.30
2024-05-09T06:19:08.216Z,101630.02
2024-05-09T06:21:39.825Z,101626.89
2024-05-09T06:24:11.422Z,101626.54
2024-05-09T06:26:46.370Z,101625.93
2024-05-09T06:29:17.701Z,101629.52
2024-05-09T06:31:49.058Z,101627.73
2024-05-09T06:34:21.747Z,101624.46
2024-05-09T06:36:53.259Z,101629.80
2024-05-09T06:39:25.220Z,101630.33
2024-05-09T06:41:56.473Z,101630.67
2024-05-09T06:44:28.071Z,101626.61
2024-05-09T06:47:00.067Z,101627.39
2024-05-09T06:49:32.861Z,101632.30
2024-05-09T06:52:04.375Z,101629.96
2024-05-09T06:54:35.721Z,101625.02
2024-05-09T06:57:07.319Z,101626.64
2024-05-09T06:59:38.869Z,101624.04
2024-05-09T07:02:10.188Z,101627.68
2024-05-09T07:04:41.783Z,101622.39
2024-05-09T07:07:13.170Z,101623.75
2024-05-09T07:09:44.518Z,101618.92
2024-05-09T07:12:15.866Z,101616.16
2024-05-09T07:14:47.580Z,101617.94
2024-05-09T07:17:20.017Z,101613.82
2024-05-09T07:19:52.200Z,101618.18
2024-05-09T07:22:25.360Z,101614.95
2024-05-09T07:24:56.708Z,101612.27
2024-05-09T07:27:27.992Z,101610.64
2024-05-09T07:29:59.691Z,101606.91
2024-05-09T07:32:31.221Z,101598.30
2024-05-09T07:35:03.054Z,101601.04
2024-05-09T07:37:34.414Z,101604.05
2024-05-09T07:40:07.686Z,101601.31
2024-05-09T07:42:39.604Z,101597.68
2024-05-09T07:45:29.686Z,101596.00
2024-05-09T07:52:32.688Z,101593.89
2024-05-09T07:53:39.969Z,101597.02
2024-05-09T07:56:18.318Z,101596.47
2024-05-09T07:58:52.254Z,101597.38
2024-05-09T08:01:25.579Z,101597.95
2024-05-09T08:03:57.276Z,101595.39
2024-05-09T08:06:29.118Z,101595.60
2024-05-09T08:09:05.101Z,101595.35
2024-05-09T08:11:39.356Z,101593.90
2024-05-09T08:14:10.701Z,101597.36
2024-05-09T08:16:42.019Z,101591.67
2024-05-09T08:19:13.327Z,101590.63
2024-05-09T08:21:44.963Z,101589.11
2024-05-09T08:24:16.387Z,101585.89
2024-05-09T08:26:47.983Z,101589.89
2024-05-09T08:29:19.318Z,101588.20
2024-05-09T08:31:55.537Z,101591.53
2024-05-09T08:34:26.990Z,101586.98
2024-05-09T08:37:03.728Z,101585.48
2024-05-09T08:39:41.018Z,101588.79
2024-05-09T08:42:14.322Z,101586.06
2024-05-09T08:44:48.204Z,101577.39
2024-05-09T08:47:18.294Z,101573.13
2024-05-09T08:49:51.064Z,101572.52
2024-05-09T08:52:22.582Z,101570.36
2024-05-09T08:54:54.655Z,101571.58
2024-05-09T08:57:27.903Z,101563.10
2024-05-09T09:00:06.444Z,101560.55
2024-05-09T09:02:42.052Z,101562.46
2024-05-09T09:05:17.245Z,101560.45
2024-05-09T09:07:51.351Z,101559.52
2024-05-09T09:10:29.755Z,101558.67
2024-05-09T09:13:05.133Z,101555.66
2024-05-09T09:15:36.822Z,101553.28
2024-05-09T09:18:11.581Z,101553.76
2024-05-09T09:20:43.783Z,101556.95
2024-05-09T09:23:15.798Z,101558.30
2024-05-09T09:25:47.292Z,101551.92
2024-05-09T09:28:18.762Z,101551.64
2024-05-09T09:30:50.119Z,101551.52
2024-05-09T09:33:21.499Z,101553.95
2024-05-09T09:35:53.014Z,101550.18
2024-05-09T09:38:25.331Z,101546.42
2024-05-09T09:40:56.666Z,101547.41
2024-05-09T09:43:28.438Z,101546.44
2024-05-09T09:46:00.229Z,101543.64
2024-05-09T09:48:32.928Z,101543.89
2024-05-09T09:51:05.865Z,101540.23
2024-05-09T09:53:38.179Z,101541.54
2024-05-09T09:56:11.164Z,101536.79
2024-05-09T09:58:44.485Z,101535.94
2024-05-09T10:01:16.062Z,101536.42
2024-05-09T10:03:50.191Z,101534.29
2024-05-09T10:06:22.005Z,101534.83
2024-05-09T10:08:53.908Z,101528.65
2024-05-09T10:11:25.197Z,101529.13
2024-05-09T10:13:57.481Z,101530.73
2024-05-09T10:16:32.740Z,101531.10
2024-05-09T10:19:04.235Z,101525.96
2024-05-09T10:21:35.890Z,101520.58
2024-05-09T10:24:08.477Z,101524.05
2024-05-09T10:26:40.424Z,101525.17
2024-05-09T10:29:15.171Z,101525.65
2024-05-09T10:31:47.619Z,101522.80
2024-05-09T10:34:23.231Z,101520.88
2024-05-09T10:36:55.662Z,101516.51
2024-05-09T10:39:27.619Z,101520.27
2024-05-09T10:41:58.856Z,101514.99
2024-05-09T10:44:30.569Z,101518.11
2024-05-09T10:47:01.920Z,101513.73
2024-05-09T10:49:33.334Z,101508.30
2024-05-09T10:52:06.370Z,101508.95
2024-05-09T10:54:41.650Z,101510.83
2024-05-09T10:57:12.918Z,101505.02
2024-05-09T10:59:45.585Z,101505.33
2024-05-09T11:02:18.402Z,101505.14
2024-05-09T11:04:50.203Z,101504.09
2024-05-09T11:07:22.288Z,101497.03
2024-05-09T11:09:55.489Z,101495.91
2024-05-09T11:12:26.780Z,101491.95
2024-05-09T11:14:58.348Z,101485.38
2024-05-09T11:17:37.454Z,101484.06
2024-05-09T11:20:16.738Z,101482.88
2024-05-09T11:22:51.689Z,101481.30
2024-05-09T11:25:23.242Z,101468.39
2024-05-09T11:27:54.557Z,101465.66
2024-05-09T11:30:31.849Z,101464.11
2024-05-09T11:33:04.022Z,101459.66
2024-05-09T11:35:35.764Z,101460.63
2024-05-09T11:38:07.335Z,101458.65
2024-05-09T11:40:39.842Z,101456.33
2024-05-09T11:43:11.174Z,101453.02
2024-05-09T11:45:42.602Z,101457.58
2024-05-09T11:48:14.072Z,101446.91
2024-05-09T11:50:45.742Z,101447.62
2024-05-09T11:53:16.982Z,101445.75
2024-05-09T11:55:50.572Z,101447.19
2024-05-09T11:58:23.638Z,101446.40
2024-05-09T12:00:55.238Z,101440.96
2024-05-09T12:03:26.837Z,101434.66
2024-05-09T12:05:58.672Z,101432.02
2024-05-09T12:08:30.171Z,101428.06
2024-05-09T12:11:01.695Z,101426.75
2024-05-09T12:13:33.161Z,101425.46
2024-05-09T12:16:04.609Z,101424.58
2024-05-09T12:18:36.112Z,101422.52
2024-05-09T12:21:08.238Z,101419.98
2024-05-09T12:23:40.453Z,101415.73
2024-05-09T12:26:12.102Z,101411.80
2024-05-09T12:28:43.482Z,101413.92
2024-05-09T12:31:15.043Z,101416.92
2024-05-09T12:33:46.599Z,101416.73
2024-05-09T12:36:18.266Z,101412.77
2024-05-09T12:38:50.921Z,101410.40
2024-05-09T12:41:22.327Z,101410.09
2024-05-09T12:43:53.629Z,101406.34
2024-05-09T12:46:25.548Z,101402.93
2024-05-09T12:48:57.150Z,101399.02
2024-05-09T12:51:28.585Z,101395.92
2024-05-09T12:54:00.043Z,101396.73
2024-05-09T12:56:33.330Z,101395.07
2024-05-09T12:59:04.550Z,101393.54
2024-05-09T13:01:36.180Z,101390.50
2024-05-09T13:04:08.027Z,101383.85
2024-05-09T13:06:39.619Z,101380.84
2024-05-09T13:09:11.833Z,101373.55
2024-05-09T13:11:43.301Z,101374.45
2024-05-09T13:14:14.526Z,101365.52
2024-05-09T13:16:46.092Z,101368.90
2024-05-09T13:19:17.578Z,101367.04
2024-05-09T13:21:49.052Z,101361.60
2024-05-09T13:24:20.347Z,101364.98
2024-05-09T13:26:51.906Z,101361.62
2024-05-09T13:29:23.193Z,101357.44
2024-05-09T13:31:54.398Z,101361.91
2024-05-09T13:34:25.653Z,101359.27
2024-05-09T13:36:57.203Z,101357.36
2024-05-09T13:39:28.502Z,101351.42
2024-05-09T13:41:59.912Z,101347.05
2024-05-09T13:44:31.537Z,101346.92
2024-05-09T13:47:03.042Z,101346.98
2024-05-09T13:49:34.492Z,101342.41
2024-05-09T13:52:06.732Z,101336.90
2024-05-09T13:54:38.329Z,101335.19
2024-05-09T13:57:09.842Z,101336.38
2024-05-09T13:59:41.193Z,101330.87
2024-05-09T14:02:12.795Z,101323.83
2024-05-09T14:04:44.631Z,101321.96
2024-05-09T14:07:16.699Z,101315.93
2024-05-09T14:09:48.929Z,101315.25
2024-05-09T14:12:20.740Z,101314.25
2024-05-09T14:14:52.155Z,101308.08
2024-05-09T14:17:23.692Z,101305.45
2024-05-09T14:19:55.002Z,101303.35
2024-05-09T14:22:26.406Z,101307.84
2024-05-09T14:24:57.715Z,101309.80
2024-05-09T14:27:29.794Z,101310.71
2024-05-09T14:30:01.238Z,101299.83
2024-05-09T14:32:32.890Z,101294.16
2024-05-09T14:35:04.493Z,101291.50
2024-05-09T14:37:37.920Z,101294.44
2024-05-09T14:40:25.983Z,101289.94
2024-05-09T14:43:03.463Z,101285.73
2024-05-09T14:45:35.436Z,101279.39
2024-05-09T14:48:08.532Z,101280.34
2024-05-09T14:50:40.909Z,101278.30
2024-05-09T14:53:13.997Z,101273.34
2024-05-09T14:55:45.655Z,101270.83
2024-05-09T14:58:17.902Z,101270.11
2024-05-09T15:00:51.255Z,101265.77
2024-05-09T15:03:23.647Z,101268.25
2024-05-09T15:05:55.494Z,101263.70
2024-05-09T15:08:27.511Z,101261.23
2024-05-09T15:10:59.875Z,101253.69
2024-05-09T15:13:31.878Z,101248.34
2024-05-09T15:16:03.629Z,101248.38
2024-05-09T15:18:35.165Z,101250.55
2024-05-09T15:21:07.069Z,101248.16
2024-05-09T15:23:38.489Z,101247.34
2024-05-09T15:26:10.064Z,101244.65
2024-05-09T15:28:42.421Z,101244.90
2024-05-09T15:31:13.900Z,101242.83
2024-05-09T15:33:45.321Z,101246.11
2024-05-09T15:36:16.704Z,101244.70
2024-05-09T15:38:48.240Z,101250.88
2024-05-09T15:41:19.435Z,101245.73
2024-05-09T15:43:50.930Z,101245.36
2024-05-09T15:46:22.410Z,101241.14
2024-05-09T15:48:54.133Z,101241.84
2024-05-09T15:51:25.605Z,101232.60
2024-05-09T15:53:57.119Z,101229.00
2024-05-09T15:56:28.516Z,101228.91
2024-05-09T15:59:00.095Z,101225.89
2024-05-09T16:01:31.432Z,101216.66
2024-05-09T16:04:03.339Z,101216.05
2024-05-09T16:06:35.873Z,101216.50
2024-05-09T16:09:07.257Z,101211.98
2024-05-09T16:11:38.656Z,101209.13
2024-05-09T16:14:10.133Z,101208.45
2024-05-09T16:16:41.528Z,101208.38
2024-05-09T16:19:13.204Z,101211.91
2024-05-09T16:21:44.614Z,101210.56
2024-05-09T16:24:16.033Z,101202.38
2024-05-09T16:26:47.300Z,101199.05
2024-05-09T16:29:18.667Z,101196.30
2024-05-09T16:31:50.045Z,101195.73
2024-05-09T16:34:21.438Z,101201.09
2024-05-09T16:36:52.999Z,101204.02
2024-05-09T16:39:24.294Z,101201.33
2024-05-09T16:41:56.329Z,101200.09
2024-05-09T16:44:27.774Z,101197.55
2024-05-09T16:46:59.152Z,101196.61
2024-05-09T16:49:30.839Z,101196.89
2024-05-09T16:52:02.463Z,101196.01
2024-05-09T16:54:33.934Z,101197.52
2024-05-09T16:57:05.665Z,101194.30
2024-05-09T16:59:37.147Z,101194.89
2024-05-09T17:02:09.596Z,101195.16
2024-05-09T17:04:41.393Z,101194.23
2024-05-09T17:07:13.293Z,101193.63
2024-05-09T17:09:45.247Z,101197.39
2024-05-09T17:12:16.581Z,101197.54
2024-05-09T17:14:47.995Z,101199.28
2024-05-09T17:17:19.812Z,101200.66
2024-05-09T17:19:51.459Z,101201.36
2024-05-09T17:22:22.838Z,101198.25
2024-05-09T17:24:54.426Z,101199.66
2024-05-09T17:27:25.818Z,101200.49
2024-05-09T17:29:57.391Z,101199.66
2024-05-09T17:32:28.744Z,101202.55
2024-05-09T17:35:00.651Z,101198.17
2024-05-09T17:37:32.325Z,101199.45
2024-05-09T17:40:06.787Z,101201.58
2024-05-09T17:42:43.057Z,101201.11
2024-05-09T17:45:15.096Z,101201.63
2024-05-09T17:47:47.458Z,101202.46
2024-05-09T17:50:27.273Z,101200.68
2024-05-09T17:53:05.400Z,101204.58
2024-05-09T17:55:37.488Z,101212.09
2024-05-09T17:58:09.060Z,101208.10
2024-05-09T18:00:42.402Z,101209.85
2024-05-09T18:03:15.133Z,101211.30
2024-05-09T18:05:47.789Z,101210.79
2024-05-09T18:08:19.399Z,101209.86
2024-05-09T18:10:52.021Z,101212.05
2024-05-09T18:13:24.283Z,101212.10
2024-05-09T18:15:56.015Z,101210.08
2024-05-09T18:18:27.485Z,101211.92
2024-05-09T18:20:59.063Z,101217.71
2024-05-09T18:23:31.107Z,101221.77
2024-05-09T18:26:03.244Z,101225.85
2024-05-09T18:28:34.481Z,101228.89
2024-05-09T18:31:06.241Z,101234.48
2024-05-09T18:33:38.034Z,101236.89
2024-05-09T18:36:10.573Z,101241.20
2024-05-09T18:38:42.895Z,101246.67
2024-05-09T18:41:14.609Z,101242.81
2024-05-09T18:43:50.186Z,101243.16
2024-05-09T18:46:22.440Z,101244.41
2024-05-09T18:48:54.036Z,101241.91
2024-05-09T18:51:26.220Z,101250.09
2024-05-09T18:53:57.549Z,101250.17
2024-05-09T18:56:29.050Z,101248.90
2024-05-09T18:59:00.380Z,101249.30
2024-05-09T19:01:32.253Z,101245.64
2024-05-09T19:04:03.804Z,101245.58
2024-05-09T19:06:37.622Z,101247.38
2024-05-09T19:09:08.992Z,101249.09
2024-05-09T19:11:40.816Z,101252.61
2024-05-09T19:14:12.317Z,101252.31
2024-05-09T19:16:44.299Z,101253.32
2024-05-09T19:19:16.559Z,101252.57
2024-05-09T19:21:48.530Z,101250.34
2024-05-09T19:24:19.872Z,101250.94
2024-05-09T19:26:51.318Z,101250.64
2024-05-09T19:29:22.623Z,101248.67
2024-05-09T19:31:54.220Z,101247.65
2024-05-09T19:34:25.566Z,101250.23
2024-05-09T19:36:57.226Z,101250.34
2024-05-09T19:39:28.547Z,101252.29
2024-05-09T19:42:00.067Z,101248.89
2024-05-09T19:44:31.454Z,101248.88
2024-05-09T19:47:02.757Z,101249.61
2024-05-09T19:49:34.186Z,101249.70
2024-05-09T19:52:06.234Z,101249.92
2024-05-09T19:54:37.645Z,101253.13
2024-05-09T19:57:09.132Z,101252.39
2024-05-09T19:59:40.422Z,101255.46
2024-05-09T20:02:12.105Z,101254.10
2024-05-09T20:04:45.717Z,101255.06
2024-05-09T20:07:17.318Z,101253.65
2024-05-09T20:09:48.650Z,101256.08
2024-05-09T20:12:20.218Z,101260.52
2024-05-09T20:14:51.496Z,101264.55
2024-05-09T20:17:22.951Z,101265.52
2024-05-09T20:19:54.479Z,101263.52
2024-05-09T20:22:26.084Z,101267.92
2024-05-09T20:24:57.416Z,101266.46
2024-05-09T20:27:29.064Z,101268.47
2024-05-09T20:30:00.448Z,101263.45
2024-05-09T20:32:32.283Z,101267.25
2024-05-09T20:35:04.144Z,101263.73
2024-05-09T20:37:35.452Z,101265.50
2024-05-09T20:40:12.248Z,101263.95
2024-05-09T20:42:47.805Z,101264.90
2024-05-09T20:45:19.079Z,101264.27
2024-05-09T20:47:51.781Z,101263.27
2024-05-09T20:50:32.030Z,101257.58
2024-05-09T20:53:10.504Z,101260.77
2024-05-09T20:55:41.884Z,101261.77
2024-05-09T20:58:14.134Z,101259.48
2024-05-09T21:00:46.555Z,101256.13
2024-05-09T21:03:20.297Z,101260.81
2024-05-09T21:05:51.845Z,101256.62
2024-05-09T21:08:23.902Z,101256.10
2024-05-09T21:10:55.442Z,101264.20
2024-05-09T21:13:27.363Z,101261.96
2024-05-09T21:15:58.888Z,101259.79
2024-05-09T21:18:30.754Z,101260.02
2024-05-09T21:21:02.308Z,101258.44
2024-05-09T21:23:33.606Z,101256.87
2024-05-09T21:26:04.881Z,101256.35
2024-05-09T21:28:36.424Z,101254.06
2024-05-09T21:31:08.926Z,101253.15
2024-05-09T21:33:40.512Z,101256.41
2024-05-09T21:36:12.518Z,101257.55
2024-05-09T21:38:43.885Z,101254.58
2024-05-09T21:41:15.174Z,101257.96
2024-05-09T21:43:46.765Z,101258.59
2024-05-09T21:46:18.083Z,101257.91
2024-05-09T21:48:49.779Z,101256.77
2024-05-09T21:51:21.186Z,101255.39
2024-05-09T21:53:52.521Z,101254.06
2024-05-09T21:56:23.839Z,101255.02
2024-05-09T21:58:55.568Z,101254.20
2024-05-09T22:01:26.993Z,101253.60
2024-05-09T22:06:53.436Z,101247.33
2024-05-09T22:09:24.677Z,101250.77
2024-05-09T22:11:57.689Z,101249.49
2024-05-09T22:14:29.399Z,101247.36
2024-05-09T22:17:00.893Z,101245.19
2024-05-09T22:19:33.065Z,101246.48
2024-05-09T22:22:04.671Z,101245.29
2024-05-09T22:24:36.214Z,101248.14
2024-05-09T22:27:08.713Z,101247.04
2024-05-09T22:29:40.467Z,101242.36
2024-05-09T22:32:11.652Z,101243.77
2024-05-09T22:34:43.071Z,101240.27
2024-05-09T22:37:14.606Z,101240.63
2024-05-09T22:39:46.190Z,101235.98
2024-05-09T22:42:18.676Z,101240.40
2024-05-09T22:44:49.900Z,101237.13
2024-05-09T22:47:21.275Z,101232.59
2024-05-09T22:49:52.727Z,101232.38
2024-05-09T22:52:24.217Z,101235.59
2024-05-09T22:54:55.807Z,101235.38
2024-05-09T22:57:27.127Z,101234.15
2024-05-09T22:59:58.618Z,101237.23
2024-05-09T23:02:30.101Z,101244.21
2024-05-09T23:05:01.892Z,101244.31
2024-05-09T23:07:33.321Z,101245.69
2024-05-09T23:10:10.845Z,101241.97
2024-05-09T23:12:44.676Z,101238.98
2024-05-09T23:15:16.139Z,101238.16
2024-05-09T23:17:47.527Z,101239.09
2024-05-09T23:20:29.855Z,101235.26
2024-05-09T23:23:08.343Z,101234.20
2024-05-09T23:25:41.068Z,101233.11
2024-05-09T23:28:13.266Z,101231.16
2024-05-09T23:30:44.936Z,101230.52
2024-05-09T23:33:16.456Z,101226.02
2024-05-09T23:35:48.164Z,101222.73
2024-05-09T23:38:22.490Z,101220.13
2024-05-09T23:40:55.248Z,101223.15
2024-05-09T23:43:26.710Z,101220.14
2024-05-09T23:45:58.383Z,101220.61
2024-05-09T23:48:29.790Z,101218.56
2024-05-09T23:51:01.289Z,101217.50
2024-05-09T23:53:32.601Z,101213.90
2024-05-09T23:56:03.939Z,101209.64
2024-05-09T23:58:35.228Z,101214.53
